sensor_id;sensor_type;location;lat;lon;timestamp;temperature;humidity
5344;DHT22;2694;48.950;8.970;2022-12-18T00:00:25;-9.10;99.90
5344;DHT22;2694;48.950;8.970;2022-12-18T00:02:52;-9.10;99.90
5344;DHT22;2694;48.950;8.970;2022-12-18T00:05:20;-9.10;99.90
5344;DHT22;2694;48.950;8.970;2022-12-18T00:07:48;-9.50;99.90
5344;DHT22;2694;48.950;8.970;2022-12-18T00:10:18;-9.50;99.90
5344;DHT22;2694;48.950;8.970;2022-12-18T00:12:46;-9.40;99.90
5344;DHT22;2694;48.950;8.970;2022-12-18T00:15:13;-9.40;99.90
5344;DHT22;2694;48.950;8.970;2022-12-18T00:17:41;-9.40;99.90
5344;DHT22;2694;48.950;8.970;2022-12-18T00:20:25;-9.30;99.90
5344;DHT22;2694;48.950;8.970;2022-12-18T00:23:06;-9.30;99.90
5344;DHT22;2694;48.950;8.970;2022-12-18T00:25:54;-9.30;99.90
5344;DHT22;2694;48.950;8.970;2022-12-18T00:28:21;-9.40;99.90
5344;DHT22;2694;48.950;8.970;2022-12-18T00:30:58;-9.40;99.90
5344;DHT22;2694;48.950;8.970;2022-12-18T00:33:25;-9.20;99.90
5344;DHT22;2694;48.950;8.970;2022-12-18T00:39:35;-9.20;99.90
5344;DHT22;2694;48.950;8.970;2022-12-18T00:42:11;-9.10;99.90
5344;DHT22;2694;48.950;8.970;2022-12-18T00:44:56;-9.10;99.90
5344;DHT22;2694;48.950;8.970;2022-12-18T00:47:23;-7.90;99.90
5344;DHT22;2694;48.950;8.970;2022-12-18T00:50:06;-9.10;99.90
5344;DHT22;2694;48.950;8.970;2022-12-18T00:52:34;-9.20;99.90
5344;DHT22;2694;48.950;8.970;2022-12-18T00:58:22;-9.10;99.90
5344;DHT22;2694;48.950;8.970;2022-12-18T01:01:02;-9.10;99.90
5344;DHT22;2694;48.950;8.970;2022-12-18T01:03:30;-9.10;99.90
5344;DHT22;2694;48.950;8.970;2022-12-18T01:05:57;-9.10;99.90
5344;DHT22;2694;48.950;8.970;2022-12-18T01:08:30;-9.10;99.90
5344;DHT22;2694;48.950;8.970;2022-12-18T01:15:00;-9.50;99.90
5344;DHT22;2694;48.950;8.970;2022-12-18T01:18:00;-9.40;99.90
5344;DHT22;2694;48.950;8.970;2022-12-18T01:20:56;-9.40;99.90
5344;DHT22;2694;48.950;8.970;2022-12-18T01:26:37;-9.40;99.90
5344;DHT22;2694;48.950;8.970;2022-12-18T01:29:05;-9.50;99.90
5344;DHT22;2694;48.950;8.970;2022-12-18T01:35:49;-9.60;99.90
5344;DHT22;2694;48.950;8.970;2022-12-18T01:38:17;-9.50;99.90
5344;DHT22;2694;48.950;8.970;2022-12-18T01:40:44;-9.70;99.90
5344;DHT22;2694;48.950;8.970;2022-12-18T01:43:11;-9.60;99.90
5344;DHT22;2694;48.950;8.970;2022-12-18T01:45:38;-9.60;99.90
5344;DHT22;2694;48.950;8.970;2022-12-18T01:48:06;-9.50;99.90
5344;DHT22;2694;48.950;8.970;2022-12-18T01:50:37;-9.50;99.90
5344;DHT22;2694;48.950;8.970;2022-12-18T01:53:14;-9.50;99.90
5344;DHT22;2694;48.950;8.970;2022-12-18T01:59:13;-10.50;99.90
5344;DHT22;2694;48.950;8.970;2022-12-18T02:01:41;-9.30;99.90
5344;DHT22;2694;48.950;8.970;2022-12-18T02:04:33;-9.20;99.90
5344;DHT22;2694;48.950;8.970;2022-12-18T02:07:06;-9.00;99.90
5344;DHT22;2694;48.950;8.970;2022-12-18T02:09:51;-8.40;99.90
5344;DHT22;2694;48.950;8.970;2022-12-18T02:12:48;-9.20;99.90
5344;DHT22;2694;48.950;8.970;2022-12-18T02:15:21;-8.90;99.90
5344;DHT22;2694;48.950;8.970;2022-12-18T02:17:54;-10.20;99.90
5344;DHT22;2694;48.950;8.970;2022-12-18T02:20:24;-8.10;99.90
5344;DHT22;2694;48.950;8.970;2022-12-18T02:23:12;-9.70;99.90
5344;DHT22;2694;48.950;8.970;2022-12-18T02:26:06;-9.30;99.90
5344;DHT22;2694;48.950;8.970;2022-12-18T02:28:37;-9.40;99.90
5344;DHT22;2694;48.950;8.970;2022-12-18T02:31:09;-9.30;99.90
5344;DHT22;2694;48.950;8.970;2022-12-18T02:33:39;-9.30;99.90
5344;DHT22;2694;48.950;8.970;2022-12-18T02:36:08;-9.30;99.90
5344;DHT22;2694;48.950;8.970;2022-12-18T02:38:36;-9.20;99.90
5344;DHT22;2694;48.950;8.970;2022-12-18T02:44:12;-9.30;99.90
5344;DHT22;2694;48.950;8.970;2022-12-18T02:46:42;-9.20;99.90
5344;DHT22;2694;48.950;8.970;2022-12-18T02:49:33;-9.20;99.90
5344;DHT22;2694;48.950;8.970;2022-12-18T02:52:07;-9.20;99.90
5344;DHT22;2694;48.950;8.970;2022-12-18T02:54:47;-9.10;99.90
5344;DHT22;2694;48.950;8.970;2022-12-18T02:57:22;-9.00;99.90
5344;DHT22;2694;48.950;8.970;2022-12-18T02:59:58;-9.20;99.90
5344;DHT22;2694;48.950;8.970;2022-12-18T03:02:33;-9.10;99.90
5344;DHT22;2694;48.950;8.970;2022-12-18T03:05:09;-9.10;99.90
5344;DHT22;2694;48.950;8.970;2022-12-18T03:07:42;-9.20;99.90
5344;DHT22;2694;48.950;8.970;2022-12-18T03:10:13;-9.40;99.90
5344;DHT22;2694;48.950;8.970;2022-12-18T03:12:45;-9.40;99.90
5344;DHT22;2694;48.950;8.970;2022-12-18T03:15:17;-9.30;99.90
5344;DHT22;2694;48.950;8.970;2022-12-18T03:17:48;-9.30;99.90
5344;DHT22;2694;48.950;8.970;2022-12-18T03:20:19;-9.00;99.90
5344;DHT22;2694;48.950;8.970;2022-12-18T03:22:51;-9.00;99.90
5344;DHT22;2694;48.950;8.970;2022-12-18T03:25:19;-9.00;99.90
5344;DHT22;2694;48.950;8.970;2022-12-18T03:27:51;-9.00;99.90
5344;DHT22;2694;48.950;8.970;2022-12-18T03:30:18;-8.90;99.90
5344;DHT22;2694;48.950;8.970;2022-12-18T03:32:50;-9.00;99.90
5344;DHT22;2694;48.950;8.970;2022-12-18T03:35:21;-9.20;99.90
5344;DHT22;2694;48.950;8.970;2022-12-18T03:37:49;-9.30;99.90
5344;DHT22;2694;48.950;8.970;2022-12-18T03:40:16;-9.30;99.90
5344;DHT22;2694;48.950;8.970;2022-12-18T03:42:48;-10.10;99.90
5344;DHT22;2694;48.950;8.970;2022-12-18T03:45:21;-9.40;99.90
5344;DHT22;2694;48.950;8.970;2022-12-18T03:47:58;-9.50;99.90
5344;DHT22;2694;48.950;8.970;2022-12-18T03:50:33;-9.50;99.90
5344;DHT22;2694;48.950;8.970;2022-12-18T03:53:14;-9.60;99.90
5344;DHT22;2694;48.950;8.970;2022-12-18T03:55:44;-9.70;99.90
5344;DHT22;2694;48.950;8.970;2022-12-18T03:58:16;-9.80;99.90
5344;DHT22;2694;48.950;8.970;2022-12-18T04:00:45;-9.80;99.90
5344;DHT22;2694;48.950;8.970;2022-12-18T04:03:15;-9.90;99.90
5344;DHT22;2694;48.950;8.970;2022-12-18T04:05:43;-9.80;99.90
5344;DHT22;2694;48.950;8.970;2022-12-18T04:08:10;-9.70;99.90
5344;DHT22;2694;48.950;8.970;2022-12-18T04:10:38;-9.70;99.90
5344;DHT22;2694;48.950;8.970;2022-12-18T04:13:05;-9.70;99.90
5344;DHT22;2694;48.950;8.970;2022-12-18T04:15:34;-9.90;99.90
5344;DHT22;2694;48.950;8.970;2022-12-18T04:18:03;-9.90;99.90
5344;DHT22;2694;48.950;8.970;2022-12-18T04:20:30;-10.00;99.90
5344;DHT22;2694;48.950;8.970;2022-12-18T04:22:57;-10.10;99.90
5344;DHT22;2694;48.950;8.970;2022-12-18T04:25:24;-10.10;99.90
5344;DHT22;2694;48.950;8.970;2022-12-18T04:27:51;-10.00;99.90
5344;DHT22;2694;48.950;8.970;2022-12-18T04:30:18;-10.00;99.90
5344;DHT22;2694;48.950;8.970;2022-12-18T04:32:46;-10.00;99.90
5344;DHT22;2694;48.950;8.970;2022-12-18T04:35:13;-10.00;99.90
5344;DHT22;2694;48.950;8.970;2022-12-18T04:37:40;-10.00;99.90
5344;DHT22;2694;48.950;8.970;2022-12-18T04:40:08;-10.10;99.90
5344;DHT22;2694;48.950;8.970;2022-12-18T04:42:35;-10.10;99.90
5344;DHT22;2694;48.950;8.970;2022-12-18T04:45:03;-10.20;99.90
5344;DHT22;2694;48.950;8.970;2022-12-18T04:47:30;-10.10;99.90
5344;DHT22;2694;48.950;8.970;2022-12-18T04:49:59;-10.00;99.90
5344;DHT22;2694;48.950;8.970;2022-12-18T04:52:26;-10.10;99.90
5344;DHT22;2694;48.950;8.970;2022-12-18T04:54:53;-10.10;99.90
5344;DHT22;2694;48.950;8.970;2022-12-18T04:57:20;-10.00;99.90
5344;DHT22;2694;48.950;8.970;2022-12-18T04:59:47;-9.80;99.90
5344;DHT22;2694;48.950;8.970;2022-12-18T05:02:14;-9.70;99.90
5344;DHT22;2694;48.950;8.970;2022-12-18T05:04:41;-9.60;99.90
5344;DHT22;2694;48.950;8.970;2022-12-18T05:07:09;-9.50;99.90
5344;DHT22;2694;48.950;8.970;2022-12-18T05:09:36;-9.40;99.90
5344;DHT22;2694;48.950;8.970;2022-12-18T05:12:03;-9.30;99.90
5344;DHT22;2694;48.950;8.970;2022-12-18T05:14:30;-9.30;99.90
5344;DHT22;2694;48.950;8.970;2022-12-18T05:16:57;-9.30;99.90
5344;DHT22;2694;48.950;8.970;2022-12-18T05:19:24;-9.30;99.90
5344;DHT22;2694;48.950;8.970;2022-12-18T05:21:51;-9.30;99.90
5344;DHT22;2694;48.950;8.970;2022-12-18T05:24:20;-9.30;99.90
5344;DHT22;2694;48.950;8.970;2022-12-18T05:26:47;-9.40;99.90
5344;DHT22;2694;48.950;8.970;2022-12-18T05:29:14;-9.30;99.90
5344;DHT22;2694;48.950;8.970;2022-12-18T05:31:41;-9.30;99.90
5344;DHT22;2694;48.950;8.970;2022-12-18T05:34:08;-9.30;99.90
5344;DHT22;2694;48.950;8.970;2022-12-18T05:36:35;-9.30;99.90
5344;DHT22;2694;48.950;8.970;2022-12-18T05:39:02;-9.20;99.90
5344;DHT22;2694;48.950;8.970;2022-12-18T05:41:31;-9.40;99.90
5344;DHT22;2694;48.950;8.970;2022-12-18T05:43:58;-9.40;99.90
5344;DHT22;2694;48.950;8.970;2022-12-18T05:46:25;-9.40;99.90
5344;DHT22;2694;48.950;8.970;2022-12-18T05:48:53;-9.50;99.90
5344;DHT22;2694;48.950;8.970;2022-12-18T05:51:21;-9.50;99.90
5344;DHT22;2694;48.950;8.970;2022-12-18T05:53:48;-9.50;99.90
5344;DHT22;2694;48.950;8.970;2022-12-18T05:56:19;-9.50;99.90
5344;DHT22;2694;48.950;8.970;2022-12-18T05:58:51;-9.50;99.90
5344;DHT22;2694;48.950;8.970;2022-12-18T06:01:21;-9.50;99.90
5344;DHT22;2694;48.950;8.970;2022-12-18T06:03:48;-9.50;99.90
5344;DHT22;2694;48.950;8.970;2022-12-18T06:06:16;-9.50;99.90
5344;DHT22;2694;48.950;8.970;2022-12-18T06:08:44;-9.50;99.90
5344;DHT22;2694;48.950;8.970;2022-12-18T06:11:11;-9.40;99.90
5344;DHT22;2694;48.950;8.970;2022-12-18T06:13:38;-9.40;99.90
5344;DHT22;2694;48.950;8.970;2022-12-18T06:16:07;-9.40;99.90
5344;DHT22;2694;48.950;8.970;2022-12-18T06:18:37;-9.40;99.90
5344;DHT22;2694;48.950;8.970;2022-12-18T06:21:05;-9.40;99.90
5344;DHT22;2694;48.950;8.970;2022-12-18T06:23:32;-9.30;99.90
5344;DHT22;2694;48.950;8.970;2022-12-18T06:26:02;-9.30;99.90
5344;DHT22;2694;48.950;8.970;2022-12-18T06:28:30;-9.30;99.90
5344;DHT22;2694;48.950;8.970;2022-12-18T06:30:57;-9.10;99.90
5344;DHT22;2694;48.950;8.970;2022-12-18T06:33:27;-9.20;99.90
5344;DHT22;2694;48.950;8.970;2022-12-18T06:35:58;-9.20;99.90
5344;DHT22;2694;48.950;8.970;2022-12-18T06:38:26;-9.20;99.90
5344;DHT22;2694;48.950;8.970;2022-12-18T06:40:53;-9.20;99.90
5344;DHT22;2694;48.950;8.970;2022-12-18T06:43:20;-9.30;99.90
5344;DHT22;2694;48.950;8.970;2022-12-18T06:45:47;-9.20;99.90
5344;DHT22;2694;48.950;8.970;2022-12-18T06:48:18;-9.20;99.90
5344;DHT22;2694;48.950;8.970;2022-12-18T06:50:47;-9.00;99.90
5344;DHT22;2694;48.950;8.970;2022-12-18T06:53:14;-9.20;99.90
5344;DHT22;2694;48.950;8.970;2022-12-18T06:55:41;-9.20;99.90
5344;DHT22;2694;48.950;8.970;2022-12-18T06:58:08;-9.20;99.90
5344;DHT22;2694;48.950;8.970;2022-12-18T07:00:35;-9.40;99.90
5344;DHT22;2694;48.950;8.970;2022-12-18T07:03:02;-9.50;99.90
5344;DHT22;2694;48.950;8.970;2022-12-18T07:05:29;-9.60;99.90
5344;DHT22;2694;48.950;8.970;2022-12-18T07:07:57;-9.70;99.90
5344;DHT22;2694;48.950;8.970;2022-12-18T07:10:25;-9.90;99.90
5344;DHT22;2694;48.950;8.970;2022-12-18T07:12:52;-9.90;99.90
5344;DHT22;2694;48.950;8.970;2022-12-18T07:15:21;-9.80;99.90
5344;DHT22;2694;48.950;8.970;2022-12-18T07:17:53;-10.00;99.90
5344;DHT22;2694;48.950;8.970;2022-12-18T07:20:21;-10.00;99.90
5344;DHT22;2694;48.950;8.970;2022-12-18T07:22:48;-9.90;99.90
5344;DHT22;2694;48.950;8.970;2022-12-18T07:25:17;-9.90;99.90
5344;DHT22;2694;48.950;8.970;2022-12-18T07:27:44;-10.00;99.90
5344;DHT22;2694;48.950;8.970;2022-12-18T07:30:11;-9.90;99.90
5344;DHT22;2694;48.950;8.970;2022-12-18T07:32:38;-10.00;99.90
5344;DHT22;2694;48.950;8.970;2022-12-18T07:35:06;-9.80;99.90
5344;DHT22;2694;48.950;8.970;2022-12-18T07:37:33;-9.90;99.90
5344;DHT22;2694;48.950;8.970;2022-12-18T07:40:00;-9.90;99.90
5344;DHT22;2694;48.950;8.970;2022-12-18T07:42:29;-9.80;99.90
5344;DHT22;2694;48.950;8.970;2022-12-18T07:44:59;-9.80;99.90
5344;DHT22;2694;48.950;8.970;2022-12-18T07:47:27;-9.80;99.90
5344;DHT22;2694;48.950;8.970;2022-12-18T07:49:54;-9.70;99.90
5344;DHT22;2694;48.950;8.970;2022-12-18T07:52:21;-9.70;99.90
5344;DHT22;2694;48.950;8.970;2022-12-18T07:54:48;-9.60;99.90
5344;DHT22;2694;48.950;8.970;2022-12-18T07:57:15;-9.60;99.90
5344;DHT22;2694;48.950;8.970;2022-12-18T07:59:44;-9.90;99.90
5344;DHT22;2694;48.950;8.970;2022-12-18T08:02:11;-9.70;99.90
5344;DHT22;2694;48.950;8.970;2022-12-18T08:05:10;-9.70;99.90
5344;DHT22;2694;48.950;8.970;2022-12-18T08:07:39;-9.70;99.90
5344;DHT22;2694;48.950;8.970;2022-12-18T08:10:07;-9.60;99.90
5344;DHT22;2694;48.950;8.970;2022-12-18T08:12:38;-9.50;99.90
5344;DHT22;2694;48.950;8.970;2022-12-18T08:15:38;-9.50;99.90
5344;DHT22;2694;48.950;8.970;2022-12-18T08:18:05;-9.40;99.90
5344;DHT22;2694;48.950;8.970;2022-12-18T08:20:32;-9.40;99.90
5344;DHT22;2694;48.950;8.970;2022-12-18T08:22:59;-9.40;99.90
5344;DHT22;2694;48.950;8.970;2022-12-18T08:25:26;-9.30;99.90
5344;DHT22;2694;48.950;8.970;2022-12-18T08:27:53;-9.10;99.90
5344;DHT22;2694;48.950;8.970;2022-12-18T08:30:22;-9.20;99.90
5344;DHT22;2694;48.950;8.970;2022-12-18T08:32:52;-9.20;99.90
5344;DHT22;2694;48.950;8.970;2022-12-18T08:35:19;-9.20;99.90
5344;DHT22;2694;48.950;8.970;2022-12-18T08:37:47;-9.10;99.90
5344;DHT22;2694;48.950;8.970;2022-12-18T08:40:14;-9.20;99.90
5344;DHT22;2694;48.950;8.970;2022-12-18T08:42:41;-9.10;99.90
5344;DHT22;2694;48.950;8.970;2022-12-18T08:45:25;-9.00;99.90
5344;DHT22;2694;48.950;8.970;2022-12-18T08:47:54;-8.90;99.90
5344;DHT22;2694;48.950;8.970;2022-12-18T08:50:21;-8.80;99.90
5344;DHT22;2694;48.950;8.970;2022-12-18T08:52:48;-8.70;99.90
5344;DHT22;2694;48.950;8.970;2022-12-18T08:55:15;-8.70;99.90
5344;DHT22;2694;48.950;8.970;2022-12-18T08:57:42;-8.70;99.90
5344;DHT22;2694;48.950;8.970;2022-12-18T09:00:10;-8.60;99.90
5344;DHT22;2694;48.950;8.970;2022-12-18T09:02:38;-8.50;99.90
5344;DHT22;2694;48.950;8.970;2022-12-18T09:05:07;-8.50;99.90
5344;DHT22;2694;48.950;8.970;2022-12-18T09:07:34;-8.40;99.90
5344;DHT22;2694;48.950;8.970;2022-12-18T09:10:04;-7.60;99.90
5344;DHT22;2694;48.950;8.970;2022-12-18T09:12:31;-8.10;99.90
5344;DHT22;2694;48.950;8.970;2022-12-18T09:14:59;-7.90;99.90
5344;DHT22;2694;48.950;8.970;2022-12-18T09:17:26;-7.80;99.90
5344;DHT22;2694;48.950;8.970;2022-12-18T09:19:56;-7.70;99.90
5344;DHT22;2694;48.950;8.970;2022-12-18T09:22:24;-7.60;99.90
5344;DHT22;2694;48.950;8.970;2022-12-18T09:24:51;-7.40;99.90
5344;DHT22;2694;48.950;8.970;2022-12-18T09:27:19;-7.20;99.90
5344;DHT22;2694;48.950;8.970;2022-12-18T09:29:47;-6.40;99.90
5344;DHT22;2694;48.950;8.970;2022-12-18T09:32:14;-7.00;99.90
5344;DHT22;2694;48.950;8.970;2022-12-18T09:34:41;-6.90;99.90
5344;DHT22;2694;48.950;8.970;2022-12-18T09:37:08;-5.80;99.90
5344;DHT22;2694;48.950;8.970;2022-12-18T09:39:38;-6.50;99.90
5344;DHT22;2694;48.950;8.970;2022-12-18T09:42:06;-6.40;99.90
5344;DHT22;2694;48.950;8.970;2022-12-18T09:44:40;-6.30;99.90
5344;DHT22;2694;48.950;8.970;2022-12-18T09:47:10;-6.20;99.90
5344;DHT22;2694;48.950;8.970;2022-12-18T09:49:43;-6.10;99.90
5344;DHT22;2694;48.950;8.970;2022-12-18T09:52:15;-6.00;99.90
5344;DHT22;2694;48.950;8.970;2022-12-18T09:54:46;-6.00;99.90
5344;DHT22;2694;48.950;8.970;2022-12-18T09:57:18;-6.00;99.90
5344;DHT22;2694;48.950;8.970;2022-12-18T09:59:51;-5.70;99.90
5344;DHT22;2694;48.950;8.970;2022-12-18T10:02:22;-6.00;99.90
5344;DHT22;2694;48.950;8.970;2022-12-18T10:05:01;-5.90;99.90
5344;DHT22;2694;48.950;8.970;2022-12-18T10:07:36;-5.80;99.90
5344;DHT22;2694;48.950;8.970;2022-12-18T10:10:12;-6.60;99.90
5344;DHT22;2694;48.950;8.970;2022-12-18T10:12:47;-5.70;99.90
5344;DHT22;2694;48.950;8.970;2022-12-18T10:15:22;-5.50;99.90
5344;DHT22;2694;48.950;8.970;2022-12-18T10:17:57;-5.50;99.90
5344;DHT22;2694;48.950;8.970;2022-12-18T10:20:32;-5.50;99.90
5344;DHT22;2694;48.950;8.970;2022-12-18T10:23:07;-5.40;99.90
5344;DHT22;2694;48.950;8.970;2022-12-18T10:25:48;-5.30;99.90
5344;DHT22;2694;48.950;8.970;2022-12-18T10:28:18;-5.40;99.90
5344;DHT22;2694;48.950;8.970;2022-12-18T10:30:47;-5.40;99.90
5344;DHT22;2694;48.950;8.970;2022-12-18T10:33:21;-5.40;99.90
5344;DHT22;2694;48.950;8.970;2022-12-18T10:35:52;-5.40;99.90
5344;DHT22;2694;48.950;8.970;2022-12-18T10:38:25;-5.30;99.90
5344;DHT22;2694;48.950;8.970;2022-12-18T10:40:56;-5.30;99.90
5344;DHT22;2694;48.950;8.970;2022-12-18T10:43:25;-5.20;99.90
5344;DHT22;2694;48.950;8.970;2022-12-18T10:46:02;-5.00;99.90
5344;DHT22;2694;48.950;8.970;2022-12-18T10:48:33;-5.00;99.90
5344;DHT22;2694;48.950;8.970;2022-12-18T10:51:00;-5.00;99.90
5344;DHT22;2694;48.950;8.970;2022-12-18T10:53:28;-4.90;99.90
5344;DHT22;2694;48.950;8.970;2022-12-18T10:56:04;-4.80;99.90
5344;DHT22;2694;48.950;8.970;2022-12-18T10:58:33;-4.70;99.90
5344;DHT22;2694;48.950;8.970;2022-12-18T11:01:07;-4.60;99.90
5344;DHT22;2694;48.950;8.970;2022-12-18T11:03:36;-4.50;99.90
5344;DHT22;2694;48.950;8.970;2022-12-18T11:06:07;-4.40;99.90
5344;DHT22;2694;48.950;8.970;2022-12-18T11:08:34;-4.30;99.90
5344;DHT22;2694;48.950;8.970;2022-12-18T11:11:06;-4.30;99.90
5344;DHT22;2694;48.950;8.970;2022-12-18T11:13:34;-4.20;99.90
5344;DHT22;2694;48.950;8.970;2022-12-18T11:16:01;-4.10;99.90
5344;DHT22;2694;48.950;8.970;2022-12-18T11:18:30;-4.30;99.90
5344;DHT22;2694;48.950;8.970;2022-12-18T11:21:00;-4.00;99.90
5344;DHT22;2694;48.950;8.970;2022-12-18T11:23:28;-3.90;99.90
5344;DHT22;2694;48.950;8.970;2022-12-18T11:25:58;-3.80;99.90
5344;DHT22;2694;48.950;8.970;2022-12-18T11:28:35;-3.70;99.90
5344;DHT22;2694;48.950;8.970;2022-12-18T11:31:23;-3.60;99.90
5344;DHT22;2694;48.950;8.970;2022-12-18T11:33:59;-3.50;99.90
5344;DHT22;2694;48.950;8.970;2022-12-18T11:36:31;-3.40;99.90
5344;DHT22;2694;48.950;8.970;2022-12-18T11:39:04;-3.40;99.90
5344;DHT22;2694;48.950;8.970;2022-12-18T11:41:37;-3.40;99.90
5344;DHT22;2694;48.950;8.970;2022-12-18T11:44:28;-3.40;99.90
5344;DHT22;2694;48.950;8.970;2022-12-18T11:47:01;-3.40;99.90
5344;DHT22;2694;48.950;8.970;2022-12-18T11:49:33;-3.40;99.90
5344;DHT22;2694;48.950;8.970;2022-12-18T11:52:04;-3.30;99.90
5344;DHT22;2694;48.950;8.970;2022-12-18T11:54:35;-3.30;99.90
5344;DHT22;2694;48.950;8.970;2022-12-18T11:57:09;-3.30;99.90
5344;DHT22;2694;48.950;8.970;2022-12-18T11:59:48;-3.20;99.90
5344;DHT22;2694;48.950;8.970;2022-12-18T12:02:29;-3.10;99.90
5344;DHT22;2694;48.950;8.970;2022-12-18T12:05:28;-3.00;99.90
5344;DHT22;2694;48.950;8.970;2022-12-18T12:08:01;-2.80;99.90
5344;DHT22;2694;48.950;8.970;2022-12-18T12:10:45;-2.70;99.90
5344;DHT22;2694;48.950;8.970;2022-12-18T12:13:25;-2.60;99.90
5344;DHT22;2694;48.950;8.970;2022-12-18T12:16:04;-2.80;99.90
5344;DHT22;2694;48.950;8.970;2022-12-18T12:18:43;-2.70;99.90
5344;DHT22;2694;48.950;8.970;2022-12-18T12:21:18;-2.80;99.90
5344;DHT22;2694;48.950;8.970;2022-12-18T12:23:55;-2.70;99.90
5344;DHT22;2694;48.950;8.970;2022-12-18T12:26:29;-2.60;99.90
5344;DHT22;2694;48.950;8.970;2022-12-18T12:29:08;-2.70;99.90
5344;DHT22;2694;48.950;8.970;2022-12-18T12:31:54;-2.60;99.90
5344;DHT22;2694;48.950;8.970;2022-12-18T12:34:25;-2.60;99.90
5344;DHT22;2694;48.950;8.970;2022-12-18T12:37:05;-2.50;99.90
5344;DHT22;2694;48.950;8.970;2022-12-18T12:39:38;-2.50;99.90
5344;DHT22;2694;48.950;8.970;2022-12-18T12:42:15;-2.40;99.90
5344;DHT22;2694;48.950;8.970;2022-12-18T12:45:06;-2.50;99.90
5344;DHT22;2694;48.950;8.970;2022-12-18T12:47:38;-2.50;99.90
5344;DHT22;2694;48.950;8.970;2022-12-18T12:50:16;-2.50;99.90
5344;DHT22;2694;48.950;8.970;2022-12-18T12:52:46;-2.60;99.90
5344;DHT22;2694;48.950;8.970;2022-12-18T12:55:17;-2.60;99.90
5344;DHT22;2694;48.950;8.970;2022-12-18T12:57:48;-2.50;99.90
5344;DHT22;2694;48.950;8.970;2022-12-18T13:00:21;-2.50;99.90
5344;DHT22;2694;48.950;8.970;2022-12-18T13:02:59;-2.40;99.90
5344;DHT22;2694;48.950;8.970;2022-12-18T13:05:31;-2.40;99.90
5344;DHT22;2694;48.950;8.970;2022-12-18T13:08:03;-2.30;99.90
5344;DHT22;2694;48.950;8.970;2022-12-18T13:10:33;-2.40;99.90
5344;DHT22;2694;48.950;8.970;2022-12-18T13:13:03;-2.40;99.90
5344;DHT22;2694;48.950;8.970;2022-12-18T13:15:33;-2.40;99.90
5344;DHT22;2694;48.950;8.970;2022-12-18T13:18:13;-2.50;99.90
5344;DHT22;2694;48.950;8.970;2022-12-18T13:20:42;-2.40;99.90
5344;DHT22;2694;48.950;8.970;2022-12-18T13:23:33;-2.50;99.90
5344;DHT22;2694;48.950;8.970;2022-12-18T13:26:29;-2.50;99.90
5344;DHT22;2694;48.950;8.970;2022-12-18T13:28:58;-2.40;99.90
5344;DHT22;2694;48.950;8.970;2022-12-18T13:34:36;-2.30;99.90
5344;DHT22;2694;48.950;8.970;2022-12-18T13:37:39;-2.20;99.90
5344;DHT22;2694;48.950;8.970;2022-12-18T13:43:37;-2.20;99.90
5344;DHT22;2694;48.950;8.970;2022-12-18T13:46:18;-2.10;99.90
5344;DHT22;2694;48.950;8.970;2022-12-18T13:48:54;-2.10;99.90
5344;DHT22;2694;48.950;8.970;2022-12-18T13:51:24;-2.10;99.90
5344;DHT22;2694;48.950;8.970;2022-12-18T13:53:54;-2.10;99.90
5344;DHT22;2694;48.950;8.970;2022-12-18T13:56:23;-2.30;99.90
5344;DHT22;2694;48.950;8.970;2022-12-18T13:59:13;-2.30;99.90
5344;DHT22;2694;48.950;8.970;2022-12-18T14:01:50;-2.40;99.90
5344;DHT22;2694;48.950;8.970;2022-12-18T14:04:23;-2.40;99.90
5344;DHT22;2694;48.950;8.970;2022-12-18T14:06:53;-2.40;99.90
5344;DHT22;2694;48.950;8.970;2022-12-18T14:09:25;-2.40;99.90
5344;DHT22;2694;48.950;8.970;2022-12-18T14:11:53;-2.50;99.90
5344;DHT22;2694;48.950;8.970;2022-12-18T14:14:44;-2.50;99.90
5344;DHT22;2694;48.950;8.970;2022-12-18T14:17:11;-2.50;99.90
5344;DHT22;2694;48.950;8.970;2022-12-18T14:19:42;-2.60;99.90
5344;DHT22;2694;48.950;8.970;2022-12-18T14:22:19;-2.60;99.90
5344;DHT22;2694;48.950;8.970;2022-12-18T14:24:47;-2.60;99.90
5344;DHT22;2694;48.950;8.970;2022-12-18T14:27:31;-2.70;99.90
5344;DHT22;2694;48.950;8.970;2022-12-18T14:29:58;-2.60;99.90
5344;DHT22;2694;48.950;8.970;2022-12-18T14:32:24;-2.60;99.90
5344;DHT22;2694;48.950;8.970;2022-12-18T14:34:53;-2.70;99.90
5344;DHT22;2694;48.950;8.970;2022-12-18T14:37:23;-2.70;99.90
5344;DHT22;2694;48.950;8.970;2022-12-18T14:39:55;-2.80;99.90
5344;DHT22;2694;48.950;8.970;2022-12-18T14:42:23;-2.70;99.90
5344;DHT22;2694;48.950;8.970;2022-12-18T14:47:53;-2.90;99.90
5344;DHT22;2694;48.950;8.970;2022-12-18T14:50:20;-2.90;99.90
5344;DHT22;2694;48.950;8.970;2022-12-18T14:52:49;-2.90;99.90
5344;DHT22;2694;48.950;8.970;2022-12-18T14:55:17;-3.00;99.90
5344;DHT22;2694;48.950;8.970;2022-12-18T14:57:45;-2.90;99.90
5344;DHT22;2694;48.950;8.970;2022-12-18T15:00:18;-3.00;99.90
5344;DHT22;2694;48.950;8.970;2022-12-18T15:02:46;-3.00;99.90
5344;DHT22;2694;48.950;8.970;2022-12-18T15:05:19;-3.10;99.90
5344;DHT22;2694;48.950;8.970;2022-12-18T15:07:49;-3.10;99.90
5344;DHT22;2694;48.950;8.970;2022-12-18T15:10:18;-3.10;99.90
5344;DHT22;2694;48.950;8.970;2022-12-18T15:12:47;-3.20;99.90
5344;DHT22;2694;48.950;8.970;2022-12-18T15:15:46;-3.10;99.90
5344;DHT22;2694;48.950;8.970;2022-12-18T15:18:15;-3.20;99.90
5344;DHT22;2694;48.950;8.970;2022-12-18T15:20:44;-3.30;99.90
5344;DHT22;2694;48.950;8.970;2022-12-18T15:23:17;-3.30;99.90
5344;DHT22;2694;48.950;8.970;2022-12-18T15:25:46;-3.30;99.90
5344;DHT22;2694;48.950;8.970;2022-12-18T15:28:21;-3.30;99.90
5344;DHT22;2694;48.950;8.970;2022-12-18T15:31:00;-3.30;99.90
5344;DHT22;2694;48.950;8.970;2022-12-18T15:33:31;-3.30;99.90
5344;DHT22;2694;48.950;8.970;2022-12-18T15:36:00;-3.40;99.90
5344;DHT22;2694;48.950;8.970;2022-12-18T15:38:29;-3.50;99.90
5344;DHT22;2694;48.950;8.970;2022-12-18T15:40:56;-3.40;99.90
5344;DHT22;2694;48.950;8.970;2022-12-18T15:43:26;-3.40;99.90
5344;DHT22;2694;48.950;8.970;2022-12-18T15:46:03;-3.50;99.90
5344;DHT22;2694;48.950;8.970;2022-12-18T15:48:37;-3.50;99.90
5344;DHT22;2694;48.950;8.970;2022-12-18T15:51:11;-3.50;99.90
5344;DHT22;2694;48.950;8.970;2022-12-18T15:53:40;-4.40;99.90
5344;DHT22;2694;48.950;8.970;2022-12-18T15:56:10;-3.60;99.90
5344;DHT22;2694;48.950;8.970;2022-12-18T15:58:55;-3.60;99.90
5344;DHT22;2694;48.950;8.970;2022-12-18T16:01:24;-3.60;99.90
5344;DHT22;2694;48.950;8.970;2022-12-18T16:03:52;-3.70;99.90
5344;DHT22;2694;48.950;8.970;2022-12-18T16:06:19;-3.90;99.90
5344;DHT22;2694;48.950;8.970;2022-12-18T16:08:48;-3.70;99.90
5344;DHT22;2694;48.950;8.970;2022-12-18T16:11:21;-3.70;99.90
5344;DHT22;2694;48.950;8.970;2022-12-18T16:14:04;-3.70;99.90
5344;DHT22;2694;48.950;8.970;2022-12-18T16:16:31;-3.70;99.90
5344;DHT22;2694;48.950;8.970;2022-12-18T16:18:59;-3.70;99.90
5344;DHT22;2694;48.950;8.970;2022-12-18T16:21:27;-3.00;99.90
5344;DHT22;2694;48.950;8.970;2022-12-18T16:24:00;-3.70;99.90
5344;DHT22;2694;48.950;8.970;2022-12-18T16:26:27;-3.70;99.90
5344;DHT22;2694;48.950;8.970;2022-12-18T16:28:54;-3.60;99.90
5344;DHT22;2694;48.950;8.970;2022-12-18T16:31:21;-3.60;99.90
5344;DHT22;2694;48.950;8.970;2022-12-18T16:33:49;-3.60;99.90
5344;DHT22;2694;48.950;8.970;2022-12-18T16:36:16;-3.70;99.90
5344;DHT22;2694;48.950;8.970;2022-12-18T16:38:43;-3.70;99.90
5344;DHT22;2694;48.950;8.970;2022-12-18T16:41:18;-3.60;99.90
5344;DHT22;2694;48.950;8.970;2022-12-18T16:43:57;-3.60;99.90
5344;DHT22;2694;48.950;8.970;2022-12-18T16:46:25;-3.60;99.90
5344;DHT22;2694;48.950;8.970;2022-12-18T16:48:52;-3.60;99.90
5344;DHT22;2694;48.950;8.970;2022-12-18T16:51:19;-3.60;99.90
5344;DHT22;2694;48.950;8.970;2022-12-18T16:53:46;-3.50;99.90
5344;DHT22;2694;48.950;8.970;2022-12-18T16:56:28;-3.40;99.90
5344;DHT22;2694;48.950;8.970;2022-12-18T16:58:56;-3.50;99.90
5344;DHT22;2694;48.950;8.970;2022-12-18T17:01:25;-3.50;99.90